createdAt,value
2022-09-12T00:00:16.454Z,13.57
2022-09-12T00:02:43.246Z,15.70
2022-09-12T00:05:09.996Z,15.32
2022-09-12T00:07:36.894Z,15.77
2022-09-12T00:10:04.969Z,14.07
2022-09-12T00:12:32.199Z,14.20
2022-09-12T00:14:59.350Z,13.77
2022-09-12T00:17:27.432Z,14.95
2022-09-12T00:19:54.387Z,15.88
2022-09-12T00:22:21.220Z,14.35
2022-09-12T00:24:48.072Z,13.65
2022-09-12T00:27:14.861Z,14.52
2022-09-12T00:29:41.925Z,15.38
2022-09-12T00:32:08.760Z,15.95
2022-09-12T00:34:37.503Z,15.75
2022-09-12T00:37:04.512Z,15.18
2022-09-12T00:39:31.272Z,16.70
2022-09-12T00:41:58.594Z,16.48
2022-09-12T00:44:55.551Z,14.63
2022-09-12T00:47:27.952Z,14.35
2022-09-12T00:50:05.604Z,14.30
2022-09-12T00:52:39.263Z,14.38
2022-09-12T00:55:10.963Z,13.73
2022-09-12T00:57:43.261Z,14.43
2022-09-12T01:00:15.856Z,14.93
2022-09-12T01:02:44.308Z,14.60
2022-09-12T01:05:13.884Z,13.85
2022-09-12T01:07:41.734Z,13.30
2022-09-12T01:10:10.279Z,14.73
2022-09-12T01:12:40.321Z,14.50
2022-09-12T01:15:08.279Z,14.27
2022-09-12T01:17:49.177Z,14.15
2022-09-12T01:21:01.525Z,14.93
2022-09-12T01:24:01.799Z,15.70
2022-09-12T01:26:56.381Z,17.20
2022-09-12T01:29:41.242Z,15.90
2022-09-12T01:32:18.610Z,16.80
2022-09-12T01:34:51.560Z,18.33
2022-09-12T01:37:26.870Z,23.30
2022-09-12T01:40:02.238Z,22.77
2022-09-12T01:42:35.412Z,24.92
2022-09-12T01:45:08.903Z,23.55
2022-09-12T01:47:41.396Z,24.92
2022-09-12T01:50:14.644Z,25.85
2022-09-12T01:52:47.259Z,30.23
2022-09-12T01:55:19.198Z,28.98
2022-09-12T01:57:53.114Z,27.48
2022-09-12T02:00:20.170Z,29.13
2022-09-12T02:02:53.063Z,29.17
2022-09-12T02:05:25.712Z,29.75
2022-09-12T02:07:57.253Z,30.00
2022-09-12T02:10:32.535Z,31.40
2022-09-12T02:13:07.425Z,30.38
2022-09-12T02:15:40.305Z,30.48
2022-09-12T02:18:12.415Z,30.92
2022-09-12T02:20:49.231Z,29.83
2022-09-12T02:23:20.975Z,29.17
2022-09-12T02:25:51.157Z,30.20
2022-09-12T02:28:23.502Z,30.00
2022-09-12T02:30:59.734Z,29.45
2022-09-12T02:33:35.440Z,29.67
2022-09-12T02:36:09.401Z,26.13
2022-09-12T02:38:44.698Z,26.23
2022-09-12T02:43:40.656Z,23.17
2022-09-12T02:46:12.676Z,24.25
2022-09-12T02:48:43.671Z,24.33
2022-09-12T02:51:11.552Z,26.70
2022-09-12T02:53:39.318Z,26.85
2022-09-12T02:56:10.892Z,27.88
2022-09-12T02:58:37.813Z,27.92
2022-09-12T03:01:14.937Z,31.05
2022-09-12T03:03:59.585Z,28.17
2022-09-12T03:06:33.808Z,27.52
2022-09-12T03:09:06.841Z,30.90
2022-09-12T03:11:51.044Z,30.60
2022-09-12T03:14:35.894Z,28.73
2022-09-12T03:17:12.315Z,29.25
2022-09-12T03:19:52.667Z,28.25
2022-09-12T03:22:24.388Z,29.90
2022-09-12T03:25:00.767Z,30.85
2022-09-12T03:27:33.550Z,28.00
2022-09-12T03:30:01.119Z,29.33
2022-09-12T03:32:41.258Z,30.02
2022-09-12T03:35:10.253Z,27.08
2022-09-12T03:37:37.079Z,28.33
2022-09-12T03:40:04.584Z,28.63
2022-09-12T03:42:31.335Z,29.10
2022-09-12T03:44:58.249Z,28.83
2022-09-12T03:47:24.969Z,28.50
2022-09-12T03:49:52.762Z,28.90
2022-09-12T03:52:20.999Z,25.88
2022-09-12T03:54:47.706Z,25.92
2022-09-12T03:57:14.530Z,24.85
2022-09-12T03:59:41.269Z,25.15
2022-09-12T04:02:09.783Z,25.90
2022-09-12T04:04:36.534Z,27.17
2022-09-12T04:07:03.523Z,25.17
2022-09-12T04:09:31.759Z,25.90
2022-09-12T04:11:58.493Z,27.55
2022-09-12T04:14:25.228Z,26.30
2022-09-12T04:16:52.017Z,27.27
2022-09-12T04:19:18.782Z,26.92
2022-09-12T04:21:45.599Z,29.83
2022-09-12T04:24:12.375Z,30.80
2022-09-12T04:26:40.608Z,29.23
2022-09-12T04:29:07.361Z,27.90
2022-09-12T04:31:34.065Z,28.42
2022-09-12T04:34:01.443Z,24.60
2022-09-12T04:36:29.528Z,24.35
2022-09-12T04:38:56.391Z,24.60
2022-09-12T04:41:25.796Z,24.05
2022-09-12T04:46:22.090Z,22.95
2022-09-12T04:48:52.268Z,21.55
2022-09-12T04:51:28.590Z,19.52
2022-09-12T04:53:58.492Z,20.23
2022-09-12T04:56:26.555Z,21.30
2022-09-12T04:58:57.590Z,22.55
2022-09-12T05:01:24.466Z,21.90
2022-09-12T05:03:51.734Z,22.20
2022-09-12T05:06:20.788Z,23.85
2022-09-12T05:08:48.113Z,25.27
2022-09-12T05:11:18.773Z,25.23
2022-09-12T05:13:48.760Z,25.73
2022-09-12T05:16:18.531Z,24.95
2022-09-12T05:18:47.465Z,25.60
2022-09-12T05:21:17.513Z,28.05
2022-09-12T05:23:44.769Z,25.95
2022-09-12T05:26:14.165Z,25.38
2022-09-12T05:28:41.198Z,24.38
2022-09-12T05:31:12.073Z,24.17
2022-09-12T05:33:41.622Z,22.25
2022-09-12T05:36:11.993Z,22.33
2022-09-12T05:38:39.099Z,23.02
2022-09-12T05:41:07.782Z,23.38
2022-09-12T05:43:34.948Z,22.73
2022-09-12T05:46:02.381Z,22.17
2022-09-12T05:48:29.568Z,24.35
2022-09-12T05:51:02.703Z,23.85
2022-09-12T05:53:31.112Z,25.33
2022-09-12T05:56:08.859Z,24.55
2022-09-12T05:58:37.272Z,25.27
2022-09-12T06:01:05.761Z,24.60
2022-09-12T06:03:32.595Z,22.42
2022-09-12T06:06:04.267Z,23.25
2022-09-12T06:08:32.111Z,23.80
2022-09-12T06:11:02.263Z,23.90
2022-09-12T06:13:31.591Z,22.52
2022-09-12T06:16:04.027Z,21.75
2022-09-12T06:18:30.850Z,21.77
2022-09-12T06:20:57.903Z,23.50
2022-09-12T06:23:27.018Z,23.50
2022-09-12T06:25:53.838Z,24.55
2022-09-12T06:28:20.945Z,24.98
2022-09-12T06:30:48.861Z,23.48
2022-09-12T06:33:15.811Z,24.33
2022-09-12T06:35:43.026Z,24.35
2022-09-12T06:38:10.186Z,21.88
2022-09-12T06:40:44.584Z,23.33
2022-09-12T06:43:12.506Z,22.17
2022-09-12T06:45:39.678Z,23.05
2022-09-12T06:48:06.651Z,22.25
2022-09-12T06:50:33.595Z,21.52
2022-09-12T06:53:00.712Z,19.70
2022-09-12T06:55:28.133Z,20.90
2022-09-12T06:57:56.388Z,18.63
2022-09-12T07:00:23.156Z,18.38
2022-09-12T07:02:54.303Z,18.25
2022-09-12T07:05:21.067Z,17.15
2022-09-12T07:07:47.850Z,16.63
2022-09-12T07:10:17.943Z,15.73
2022-09-12T07:12:47.850Z,16.23
2022-09-12T07:15:16.546Z,16.67
2022-09-12T07:17:43.323Z,16.25
2022-09-12T07:20:10.408Z,15.70
2022-09-12T07:22:37.606Z,14.40
2022-09-12T07:25:05.362Z,14.55
2022-09-12T07:27:32.107Z,15.50
2022-09-12T07:29:59.206Z,14.73
2022-09-12T07:32:27.615Z,14.98
2022-09-12T07:34:54.439Z,14.25
2022-09-12T07:37:21.192Z,13.02
2022-09-12T07:39:47.946Z,13.38
2022-09-12T07:42:14.791Z,14.05
2022-09-12T07:44:41.755Z,13.27
2022-09-12T07:47:08.512Z,13.65
2022-09-12T07:49:36.605Z,13.48
2022-09-12T07:52:03.319Z,15.43
2022-09-12T07:54:30.145Z,13.95
2022-09-12T07:56:56.983Z,12.63
2022-09-12T07:59:48.380Z,12.98
2022-09-12T08:02:16.874Z,12.63
2022-09-12T08:04:47.039Z,11.27
2022-09-12T08:07:13.864Z,11.65
2022-09-12T08:09:40.821Z,11.45
2022-09-12T08:12:07.968Z,11.93
2022-09-12T08:14:34.744Z,12.45
2022-09-12T08:17:01.557Z,11.95
2022-09-12T08:19:28.235Z,12.40
2022-09-12T08:21:56.316Z,12.13
2022-09-12T08:24:23.143Z,12.32
2022-09-12T08:26:49.884Z,12.32
2022-09-12T08:29:16.878Z,12.15
2022-09-12T08:31:43.587Z,11.60
2022-09-12T08:34:10.320Z,9.65
2022-09-12T08:36:37.156Z,9.95
2022-09-12T08:39:07.251Z,10.07
2022-09-12T08:41:37.964Z,10.73
2022-09-12T08:44:19.965Z,10.95
2022-09-12T08:46:58.142Z,10.05
2022-09-12T08:49:29.943Z,11.80
2022-09-12T08:52:00.126Z,10.77
2022-09-12T08:54:30.650Z,11.05
2022-09-12T08:57:03.272Z,11.50
2022-09-12T08:59:36.104Z,11.48
2022-09-12T09:02:05.454Z,11.45
2022-09-12T09:04:42.168Z,11.10
2022-09-12T09:07:28.930Z,11.52
2022-09-12T09:10:15.988Z,10.60
2022-09-12T09:12:51.834Z,10.60
2022-09-12T09:15:35.711Z,11.00
2022-09-12T09:18:08.435Z,10.40
2022-09-12T09:20:42.326Z,10.13
2022-09-12T09:23:16.013Z,11.18
2022-09-12T09:25:50.869Z,11.65
2022-09-12T09:28:21.905Z,9.90
2022-09-12T09:30:48.819Z,10.23
2022-09-12T09:33:21.915Z,11.25
2022-09-12T09:35:56.707Z,10.02
2022-09-12T09:38:29.463Z,10.65
2022-09-12T09:41:12.794Z,11.13
2022-09-12T09:43:39.918Z,10.88
2022-09-12T09:46:07.271Z,11.30
2022-09-12T09:48:36.285Z,10.82
2022-09-12T09:51:07.187Z,9.35
2022-09-12T09:53:38.835Z,9.88
2022-09-12T09:56:12.079Z,11.20
2022-09-12T09:58:40.446Z,8.13
2022-09-12T10:01:14.503Z,6.95
2022-09-12T10:03:48.764Z,7.07
2022-09-12T10:06:31.128Z,7.85
2022-09-12T10:09:10.636Z,7.20
2022-09-12T10:11:43.665Z,7.03
2022-09-12T10:14:45.461Z,7.88
2022-09-12T10:17:33.210Z,5.65
2022-09-12T10:20:22.740Z,9.35
2022-09-12T10:22:48.579Z,9.05
2022-09-12T10:25:19.278Z,7.78
2022-09-12T10:27:53.883Z,6.72
2022-09-12T10:30:24.871Z,7.38
2022-09-12T10:32:52.010Z,7.82
2022-09-12T10:35:21.665Z,7.15
2022-09-12T10:37:55.326Z,7.32
2022-09-12T10:40:25.950Z,7.18
2022-09-12T10:42:55.717Z,6.75
2022-09-12T10:45:29.130Z,7.55
2022-09-12T10:47:59.201Z,7.78
2022-09-12T10:50:31.088Z,7.80
2022-09-12T10:53:14.723Z,7.15
2022-09-12T10:55:51.899Z,7.85
2022-09-12T10:58:43.186Z,6.75
2022-09-12T11:01:19.763Z,8.20
2022-09-12T11:04:18.536Z,8.73
2022-09-12T11:06:52.212Z,8.38
2022-09-12T11:09:26.992Z,8.50
2022-09-12T11:14:42.426Z,7.55
2022-09-12T11:17:22.456Z,7.35
2022-09-12T11:20:04.389Z,7.95
2022-09-12T11:22:52.980Z,7.25
2022-09-12T11:25:31.338Z,8.07
2022-09-12T11:28:13.903Z,8.43
2022-09-12T11:30:54.415Z,7.85
2022-09-12T11:33:34.665Z,7.63
2022-09-12T11:36:05.480Z,9.35
2022-09-12T11:38:47.642Z,9.38
2022-09-12T11:41:22.089Z,9.07
2022-09-12T11:43:53.310Z,8.90
2022-09-12T11:46:25.906Z,9.02
2022-09-12T11:48:58.090Z,10.13
2022-09-12T11:51:29.382Z,8.52
2022-09-12T11:54:02.732Z,8.77
2022-09-12T11:56:29.817Z,9.57
2022-09-12T11:59:03.450Z,10.57
2022-09-12T12:01:43.869Z,10.43
2022-09-12T12:04:18.748Z,10.85
2022-09-12T12:06:52.816Z,9.18
2022-09-12T12:09:19.988Z,9.93
2022-09-12T12:11:52.332Z,9.65
2022-09-12T12:14:23.074Z,9.45
2022-09-12T12:16:51.446Z,8.65
2022-09-12T12:19:36.599Z,9.10
2022-09-12T12:22:12.779Z,9.93
2022-09-12T12:24:54.936Z,9.90
2022-09-12T12:27:45.852Z,9.20
2022-09-12T12:31:00.558Z,7.90
2022-09-12T12:34:02.114Z,8.98
2022-09-12T12:36:31.439Z,9.00
2022-09-12T12:38:59.976Z,9.07
2022-09-12T12:41:45.506Z,7.88
2022-09-12T12:44:51.224Z,8.68
2022-09-12T12:47:21.880Z,8.73
2022-09-12T12:49:57.701Z,9.00
2022-09-12T12:52:28.465Z,8.68
2022-09-12T12:54:58.266Z,7.70
2022-09-12T12:57:46.610Z,7.60
2022-09-12T13:00:29.963Z,8.25
2022-09-12T13:03:00.156Z,7.40
2022-09-12T13:05:30.680Z,6.80
2022-09-12T13:08:02.923Z,8.23
2022-09-12T13:10:30.743Z,7.68
2022-09-12T13:13:02.214Z,7.53
2022-09-12T13:15:48.428Z,7.00
2022-09-12T13:18:21.705Z,6.78
2022-09-12T13:20:54.321Z,6.28
2022-09-12T13:23:26.368Z,6.03
2022-09-12T13:25:54.660Z,8.05
2022-09-12T13:28:21.717Z,6.60
2022-09-12T13:30:56.949Z,6.80
2022-09-12T13:33:34.492Z,6.28
2022-09-12T13:36:38.169Z,5.10
2022-09-12T13:39:19.239Z,5.68
2022-09-12T13:42:05.275Z,6.53
2022-09-12T13:44:37.946Z,5.80
2022-09-12T13:47:05.745Z,6.45
2022-09-12T13:49:35.799Z,6.85
2022-09-12T13:52:07.235Z,6.15
2022-09-12T13:54:37.973Z,7.47
2022-09-12T13:57:06.111Z,6.05
2022-09-12T13:59:39.005Z,6.35
2022-09-12T14:02:18.640Z,4.95
2022-09-12T14:05:06.304Z,5.43
2022-09-12T14:07:40.639Z,5.38
2022-09-12T14:10:08.255Z,5.47
2022-09-12T14:12:37.776Z,4.82
2022-09-12T14:15:09.575Z,4.20
2022-09-12T14:17:39.492Z,3.80
2022-09-12T14:20:10.196Z,3.20
2022-09-12T14:22:38.996Z,3.65
2022-09-12T14:25:10.827Z,3.85
2022-09-12T14:27:45.851Z,3.53
2022-09-12T14:33:03.492Z,4.13
2022-09-12T14:35:33.243Z,4.60
2022-09-12T14:38:12.732Z,3.65
2022-09-12T14:40:44.795Z,3.45
2022-09-12T14:43:21.440Z,3.63
2022-09-12T14:46:00.746Z,3.78
2022-09-12T14:48:30.761Z,4.28
2022-09-12T14:50:58.494Z,3.63
2022-09-12T14:53:32.885Z,4.00
2022-09-12T14:56:07.760Z,3.80
2022-09-12T14:58:34.724Z,4.00
2022-09-12T15:01:21.023Z,3.90
2022-09-12T15:03:52.057Z,4.25
2022-09-12T15:06:23.277Z,4.10
2022-09-12T15:08:53.981Z,3.55
2022-09-12T15:11:20.756Z,3.70
2022-09-12T15:13:47.894Z,3.00
2022-09-12T15:16:15.788Z,2.88
2022-09-12T15:18:42.902Z,2.20
2022-09-12T15:21:13.732Z,2.47
2022-09-12T15:23:43.954Z,2.10
2022-09-12T15:26:13.855Z,2.40
2022-09-12T15:28:40.742Z,2.00
2022-09-12T15:31:13.425Z,2.08
2022-09-12T15:33:40.298Z,2.67
2022-09-12T15:36:15.581Z,2.30
2022-09-12T15:38:42.778Z,2.28
2022-09-12T15:41:15.003Z,2.38
2022-09-12T15:43:41.899Z,2.30
2022-09-12T15:46:11.975Z,2.40
2022-09-12T15:48:39.296Z,2.03
2022-09-12T15:51:06.844Z,2.38
2022-09-12T15:53:33.792Z,2.53
2022-09-12T15:56:00.868Z,2.45
2022-09-12T15:58:29.812Z,2.35
2022-09-12T16:00:57.110Z,2.50
2022-09-12T16:03:27.605Z,2.70
2022-09-12T16:05:57.237Z,2.60
2022-09-12T16:08:24.389Z,2.67
2022-09-12T16:10:56.214Z,2.38
2022-09-12T16:13:23.562Z,2.88
2022-09-12T16:15:52.772Z,2.60
2022-09-12T16:18:19.760Z,2.60
2022-09-12T16:20:46.823Z,2.90
2022-09-12T16:23:14.074Z,2.30
2022-09-12T16:25:41.157Z,2.45
2022-09-12T16:28:08.347Z,2.60
2022-09-12T16:30:36.093Z,2.53
2022-09-12T16:33:04.332Z,2.10
2022-09-12T16:35:31.678Z,2.70
2022-09-12T16:37:58.747Z,2.28
2022-09-12T16:40:25.744Z,2.22
2022-09-12T16:42:52.806Z,1.98
2022-09-12T16:45:19.898Z,2.25
2022-09-12T16:47:46.668Z,3.08
2022-09-12T16:50:15.000Z,2.45
2022-09-12T16:52:41.771Z,2.78
2022-09-12T16:55:09.146Z,2.25
2022-09-12T16:57:36.254Z,2.30
2022-09-12T17:00:04.250Z,2.75
2022-09-12T17:02:31.088Z,2.63
2022-09-12T17:04:57.834Z,2.95
2022-09-12T17:07:26.052Z,3.17
2022-09-12T17:09:53.225Z,2.85
2022-09-12T17:12:20.283Z,2.80
2022-09-12T17:14:47.237Z,2.63
2022-09-12T17:17:14.236Z,3.00
2022-09-12T17:19:41.105Z,2.72
2022-09-12T17:22:07.877Z,3.42
2022-09-12T17:24:36.079Z,3.58
2022-09-12T17:27:03.025Z,3.30
2022-09-12T17:29:29.924Z,3.78
2022-09-12T17:31:57.158Z,3.35
2022-09-12T17:34:23.944Z,2.95
2022-09-12T17:36:50.840Z,3.40
2022-09-12T17:39:17.703Z,3.67
2022-09-12T17:41:46.425Z,4.00
2022-09-12T17:44:15.281Z,3.95
2022-09-12T17:46:42.641Z,3.45
2022-09-12T17:49:13.652Z,3.22
2022-09-12T17:51:41.170Z,4.40
2022-09-12T17:54:10.311Z,3.78
2022-09-12T17:59:07.375Z,3.72
2022-09-12T18:01:52.921Z,4.78
2022-09-12T18:04:20.242Z,4.15
2022-09-12T18:06:50.377Z,3.92
2022-09-12T18:09:19.419Z,4.45
2022-09-12T18:11:46.398Z,4.05
2022-09-12T18:14:15.518Z,4.75
2022-09-12T18:16:42.474Z,4.68
2022-09-12T18:19:09.447Z,5.25
2022-09-12T18:21:36.340Z,5.35
2022-09-12T18:24:04.151Z,4.72
2022-09-12T18:26:31.378Z,5.10
2022-09-12T18:28:58.866Z,5.28
2022-09-12T18:31:28.971Z,4.78
2022-09-12T18:33:56.198Z,4.78
2022-09-12T18:36:23.534Z,4.53
2022-09-12T18:38:50.315Z,4.70
2022-09-12T18:41:19.491Z,4.47
2022-09-12T18:43:47.456Z,4.82
2022-09-12T18:46:16.821Z,5.05
2022-09-12T18:48:45.655Z,4.80
2022-09-12T18:51:17.933Z,5.03
2022-09-12T18:53:49.434Z,6.03
2022-09-12T18:56:16.277Z,6.22
2022-09-12T18:58:44.137Z,6.53
2022-09-12T19:01:12.892Z,7.25
2022-09-12T19:03:39.976Z,6.90
2022-09-12T19:06:11.713Z,6.43
2022-09-12T19:08:39.428Z,8.38
2022-09-12T19:11:07.955Z,7.63
2022-09-12T19:13:36.223Z,6.90
2022-09-12T19:16:04.819Z,6.47
2022-09-12T19:18:33.660Z,6.45
2022-09-12T19:21:01.465Z,5.97
2022-09-12T19:23:30.846Z,6.07
2022-09-12T19:28:24.839Z,6.28
2022-09-12T19:30:51.731Z,7.57
2022-09-12T19:33:19.037Z,8.48
2022-09-12T19:35:45.833Z,9.43
2022-09-12T19:38:13.424Z,9.85
2022-09-12T19:40:41.713Z,9.23
2022-09-12T19:43:09.416Z,9.40
2022-09-12T19:45:36.673Z,9.60
2022-09-12T19:48:04.103Z,9.57
2022-09-12T19:50:32.331Z,11.50
2022-09-12T19:52:59.083Z,8.55
2022-09-12T19:55:25.998Z,9.10
2022-09-12T19:57:54.192Z,11.35
2022-09-12T20:00:21.079Z,10.63
2022-09-12T20:02:50.577Z,10.93
2022-09-12T20:05:17.533Z,10.95
2022-09-12T20:07:44.355Z,11.80
2022-09-12T20:10:11.588Z,11.05
2022-09-12T20:12:38.655Z,10.13
2022-09-12T20:15:08.416Z,10.50
2022-09-12T20:17:35.566Z,10.55
2022-09-12T20:20:02.453Z,10.98
2022-09-12T20:22:29.132Z,11.73
2022-09-12T20:24:56.959Z,10.48
2022-09-12T20:27:23.714Z,11.45
2022-09-12T20:29:51.384Z,11.23
2022-09-12T20:32:20.055Z,11.85
2022-09-12T20:34:46.922Z,11.73
2022-09-12T20:37:13.761Z,12.50
2022-09-12T20:39:40.923Z,11.63
2022-09-12T20:42:07.790Z,12.48
2022-09-12T20:44:34.564Z,13.52
2022-09-12T20:47:01.402Z,11.70
2022-09-12T20:49:29.483Z,11.68
2022-09-12T20:51:56.215Z,11.60
2022-09-12T20:54:23.353Z,12.02
2022-09-12T20:56:50.362Z,13.25
2022-09-12T20:59:17.092Z,13.57
2022-09-12T21:01:44.182Z,12.48
2022-09-12T21:04:14.901Z,13.05
2022-09-12T21:06:43.519Z,13.10
2022-09-12T21:09:10.239Z,12.32
2022-09-12T21:11:36.994Z,13.57
2022-09-12T21:14:03.885Z,13.35
2022-09-12T21:16:30.702Z,12.75
2022-09-12T21:18:58.865Z,12.05
2022-09-12T21:21:26.156Z,11.43
2022-09-12T21:23:57.851Z,11.57
2022-09-12T21:26:24.582Z,11.18
2022-09-12T21:28:51.315Z,10.82
2022-09-12T21:31:18.136Z,10.85
2022-09-12T21:33:44.891Z,10.63
2022-09-12T21:36:12.179Z,12.00
2022-09-12T21:38:39.067Z,12.15
2022-09-12T21:41:09.565Z,12.65
2022-09-12T21:43:37.493Z,12.82
2022-09-12T21:46:05.767Z,12.90
2022-09-12T21:48:33.354Z,12.45
2022-09-12T21:51:00.448Z,14.02
2022-09-12T21:53:27.580Z,14.05
2022-09-12T21:55:54.378Z,14.85
2022-09-12T21:58:22.516Z,15.93
2022-09-12T22:00:49.755Z,16.05
2022-09-12T22:03:17.614Z,15.40
2022-09-12T22:05:44.474Z,17.52
2022-09-12T22:08:11.566Z,18.10
2022-09-12T22:10:38.729Z,19.38
2022-09-12T22:13:05.906Z,18.98
2022-09-12T22:15:40.461Z,19.45
2022-09-12T22:18:07.795Z,19.48
2022-09-12T22:20:34.569Z,20.75
2022-09-12T22:23:24.348Z,22.15
2022-09-12T22:25:53.865Z,21.27
2022-09-12T22:28:21.284Z,22.30
2022-09-12T22:30:49.352Z,22.83
2022-09-12T22:33:16.158Z,22.98
2022-09-12T22:35:42.960Z,22.10
2022-09-12T22:38:13.518Z,23.25
2022-09-12T22:40:40.302Z,23.58
2022-09-12T22:43:07.035Z,23.63
2022-09-12T22:45:33.787Z,21.27
2022-09-12T22:48:05.095Z,19.77
2022-09-12T22:50:35.650Z,21.80
2022-09-12T22:53:02.504Z,20.40
2022-09-12T22:55:29.277Z,17.42
2022-09-12T22:57:56.457Z,14.18
2022-09-12T23:00:23.765Z,12.48
2022-09-12T23:02:50.693Z,12.77
2022-09-12T23:05:18.837Z,11.55
2022-09-12T23:07:45.654Z,12.07
2022-09-12T23:10:12.603Z,11.43
2022-09-12T23:12:39.433Z,11.80
2022-09-12T23:15:07.320Z,12.32
2022-09-12T23:17:35.173Z,11.35
2022-09-12T23:20:02.555Z,10.40
2022-09-12T23:22:31.063Z,10.95
2022-09-12T23:24:57.789Z,10.27
2022-09-12T23:27:27.076Z,10.55
2022-09-12T23:32:23.439Z,11.10
2022-09-12T23:34:50.275Z,10.90
2022-09-12T23:37:17.032Z,10.73
2022-09-12T23:39:45.450Z,10.57
2022-09-12T23:42:12.227Z,9.43
2022-09-12T23:44:39.048Z,9.43
2022-09-12T23:47:05.978Z,10.32
2022-09-12T23:49:32.790Z,8.93
2022-09-12T23:51:59.634Z,8.88
2022-09-12T23:54:26.640Z,7.85
2022-09-12T23:56:54.790Z,7.70
2022-09-12T23:59:21.600Z,7.40
